createdAt,value
2024-01-20T00:00:48.221Z,56.86
2024-01-20T00:01:48.214Z,55.38
2024-01-20T00:02:48.234Z,57.05
2024-01-20T00:03:48.295Z,57.05
2024-01-20T00:04:48.363Z,57.39
2024-01-20T00:05:48.386Z,55.90
2024-01-20T00:06:48.417Z,55.40
2024-01-20T00:07:48.453Z,56.36
2024-01-20T00:57:55.557Z,58.44
2024-01-20T00:58:48.781Z,65.31
2024-01-20T00:59:48.743Z,87.11
2024-01-20T01:00:48.785Z,117.35
2024-01-20T01:01:48.784Z,150.29
2024-01-20T01:02:48.798Z,185.02
2024-01-20T01:03:48.771Z,177.14
2024-01-20T01:04:48.775Z,161.65
2024-01-20T01:05:48.816Z,149.14
2024-01-20T01:06:48.761Z,140.63
2024-01-20T01:07:48.766Z,130.93
2024-01-20T01:08:48.772Z,124.10
2024-01-20T01:09:48.763Z,118.34
2024-01-20T01:10:48.799Z,110.99
2024-01-20T01:11:48.777Z,107.14
2024-01-20T01:12:48.773Z,100.01
2024-01-20T01:13:48.818Z,98.87
2024-01-20T01:14:48.782Z,94.44
2024-01-20T01:15:48.792Z,92.60
2024-01-20T01:16:48.890Z,87.03
2024-01-20T01:17:48.936Z,85.96
2024-01-20T01:18:48.885Z,83.49
2024-01-20T01:19:48.947Z,79.92
2024-01-20T01:20:48.978Z,78.18
2024-01-20T01:21:49.024Z,78.26
2024-01-20T01:22:49.133Z,76.24
2024-01-20T01:23:49.161Z,74.54
2024-01-20T01:24:49.172Z,72.96
2024-01-20T01:25:49.306Z,72.02
2024-01-20T01:26:49.341Z,69.79
2024-01-20T01:27:49.318Z,68.05
2024-01-20T01:28:49.364Z,69.79
2024-01-20T01:29:49.473Z,65.99
2024-01-20T01:30:49.460Z,65.43
2024-01-20T01:31:49.590Z,64.61
2024-01-20T01:32:49.675Z,64.42
2024-01-20T01:33:49.711Z,62.55
2024-01-20T01:34:49.673Z,61.63
2024-01-20T01:35:49.716Z,61.22
2024-01-20T01:36:49.785Z,61.51
2024-01-20T01:37:49.828Z,61.56
2024-01-20T01:38:49.901Z,58.41
2024-01-20T01:39:49.943Z,60.90
2024-01-20T01:40:49.985Z,60.26
2024-01-20T01:41:50.017Z,57.50
2024-01-20T01:42:50.068Z,58.83
2024-01-20T01:43:50.119Z,57.67
2024-01-20T01:44:50.177Z,57.09
2024-01-20T01:45:50.230Z,56.55
2024-01-20T01:46:50.268Z,59.58
2024-01-20T01:47:50.367Z,56.00
2024-01-20T01:48:50.387Z,55.47
2024-01-20T01:49:50.436Z,56.81
2024-01-20T01:50:50.438Z,55.25
2024-01-20T01:51:50.499Z,55.28
2024-01-20T01:52:50.531Z,55.55
2024-01-20T01:53:50.623Z,53.22
2024-01-20T01:54:50.636Z,52.09
2024-01-20T01:55:50.683Z,54.64
2024-01-20T01:56:50.791Z,54.44
2024-01-20T01:57:50.783Z,55.68
2024-01-20T01:58:50.829Z,55.60
2024-01-20T01:59:50.906Z,51.00
2024-01-20T02:00:50.879Z,53.75
2024-01-20T02:01:50.886Z,54.06
2024-01-20T02:02:50.949Z,54.76
2024-01-20T02:03:50.970Z,53.58
2024-01-20T02:04:50.931Z,53.27
2024-01-20T02:05:50.945Z,52.70
2024-01-20T02:06:50.998Z,52.35
2024-01-20T02:07:50.970Z,51.17
2024-01-20T02:08:51.011Z,52.12
2024-01-20T02:09:51.010Z,51.91
2024-01-20T02:10:51.025Z,51.50
2024-01-20T02:11:51.095Z,51.84
2024-01-20T02:12:51.067Z,52.19
2024-01-20T02:13:51.088Z,50.92
2024-01-20T02:14:51.121Z,52.75
2024-01-20T02:15:51.161Z,51.90
2024-01-20T02:16:51.217Z,50.96
2024-01-20T02:17:51.380Z,51.72
2024-01-20T02:18:51.428Z,50.40
2024-01-20T02:19:51.368Z,52.13
2024-01-20T02:20:51.473Z,51.04
2024-01-20T02:21:51.453Z,53.88
2024-01-20T02:22:51.505Z,52.81
2024-01-20T02:23:51.592Z,50.59
2024-01-20T02:24:51.621Z,53.32
2024-01-20T02:25:51.720Z,53.49
2024-01-20T02:26:51.713Z,53.80
2024-01-20T02:27:51.814Z,50.12
2024-01-20T02:28:51.809Z,52.91
2024-01-20T02:29:52.008Z,52.12
2024-01-20T02:30:51.902Z,52.31
2024-01-20T02:31:51.954Z,51.96
2024-01-20T02:32:52.187Z,53.21
2024-01-20T02:33:52.158Z,52.92
2024-01-20T02:34:52.116Z,53.71
2024-01-20T02:35:52.179Z,52.90
2024-01-20T02:36:52.179Z,51.87
2024-01-20T02:37:52.243Z,54.25
2024-01-20T02:38:52.414Z,52.32
2024-01-20T02:39:52.336Z,52.11
2024-01-20T02:40:52.396Z,52.14
2024-01-20T02:41:52.453Z,52.82
2024-01-20T02:42:52.477Z,51.88
2024-01-20T02:43:52.537Z,52.77
2024-01-20T02:44:52.690Z,53.35
2024-01-20T02:45:52.613Z,52.30
2024-01-20T02:46:52.656Z,50.95
2024-01-20T02:47:52.864Z,52.69
2024-01-20T02:48:52.831Z,52.82
2024-01-20T02:49:52.878Z,51.59
2024-01-20T02:50:52.881Z,53.47
2024-01-20T02:51:52.883Z,53.31
2024-01-20T02:52:52.923Z,53.80
2024-01-20T02:53:53.007Z,52.91
2024-01-20T02:54:53.022Z,54.65
2024-01-20T02:55:53.079Z,52.46
2024-01-20T02:56:53.152Z,52.88
2024-01-20T02:57:53.185Z,55.03
2024-01-20T02:58:53.232Z,52.76
2024-01-20T02:59:53.334Z,53.06
2024-01-20T03:00:53.438Z,52.33
2024-01-20T03:01:53.396Z,51.65
2024-01-20T03:02:53.541Z,53.74
2024-01-20T03:03:53.542Z,53.46
2024-01-20T03:04:53.584Z,52.50
2024-01-20T03:05:53.710Z,53.80
2024-01-20T03:06:53.651Z,54.80
2024-01-20T03:07:53.700Z,53.33
2024-01-20T03:08:53.768Z,53.42
2024-01-20T03:09:53.789Z,50.12
2024-01-20T03:10:53.841Z,54.05
2024-01-20T03:11:53.913Z,55.33
2024-01-20T03:12:53.919Z,54.73
2024-01-20T03:13:53.972Z,54.72
2024-01-20T03:14:54.012Z,53.52
2024-01-20T03:15:54.066Z,54.47
2024-01-20T03:16:54.108Z,53.27
2024-01-20T03:17:54.221Z,54.00
2024-01-20T03:18:54.236Z,55.22
2024-01-20T03:19:54.276Z,52.71
2024-01-20T03:20:54.301Z,54.12
2024-01-20T03:21:54.366Z,54.42
2024-01-20T03:22:54.391Z,54.67
2024-01-20T03:23:54.465Z,54.23
2024-01-20T03:24:54.496Z,53.80
2024-01-20T03:25:54.565Z,53.09
2024-01-20T03:26:56.100Z,52.13
2024-01-20T03:27:54.800Z,54.06
2024-01-20T03:28:54.837Z,53.35
2024-01-20T03:29:54.916Z,52.61
2024-01-20T03:30:54.951Z,53.87
2024-01-20T03:31:54.991Z,53.14
2024-01-20T03:32:55.189Z,53.02
2024-01-20T03:33:55.187Z,53.91
2024-01-20T03:34:55.170Z,55.05
2024-01-20T03:35:55.216Z,55.03
2024-01-20T03:36:55.250Z,52.58
2024-01-20T03:37:55.320Z,55.24
2024-01-20T03:38:55.386Z,53.00
2024-01-20T03:39:55.402Z,54.51
2024-01-20T03:40:55.420Z,55.36
2024-01-20T03:41:55.479Z,55.36
2024-01-20T03:42:55.465Z,52.76
2024-01-20T03:43:55.486Z,53.36
2024-01-20T03:44:55.592Z,53.88
2024-01-20T03:45:55.527Z,54.45
2024-01-20T03:46:55.559Z,54.20
2024-01-20T03:47:55.629Z,54.44
2024-01-20T03:48:55.717Z,54.44
2024-01-20T03:49:55.673Z,54.00
2024-01-20T03:50:55.687Z,54.82
2024-01-20T03:51:55.634Z,55.02
2024-01-20T03:52:55.654Z,53.94
2024-01-20T03:53:55.731Z,51.88
2024-01-20T03:54:55.673Z,54.33
2024-01-20T03:55:55.700Z,52.53
2024-01-20T03:56:55.751Z,51.53
2024-01-20T03:57:55.741Z,53.30
2024-01-20T03:58:55.756Z,53.15
2024-01-20T03:59:55.793Z,53.34
2024-01-20T04:00:55.826Z,52.39
2024-01-20T04:01:55.802Z,54.57
2024-01-20T04:02:55.848Z,53.20
2024-01-20T04:03:55.987Z,54.65
2024-01-20T04:04:55.893Z,52.61
2024-01-20T04:05:55.979Z,53.30
2024-01-20T04:06:55.894Z,55.04
2024-01-20T04:07:55.896Z,53.97
2024-01-20T04:08:55.958Z,52.99
2024-01-20T04:09:55.960Z,53.41
2024-01-20T04:10:55.955Z,51.43
2024-01-20T04:11:55.990Z,53.10
2024-01-20T04:12:55.982Z,53.38
2024-01-20T04:13:56.003Z,52.89
2024-01-20T04:14:56.058Z,52.75
2024-01-20T04:15:56.606Z,51.73
2024-01-20T04:16:56.137Z,53.17
2024-01-20T04:17:56.385Z,53.90
2024-01-20T04:18:56.338Z,52.71
2024-01-20T04:19:56.381Z,53.15
2024-01-20T04:20:56.367Z,55.03
2024-01-20T04:21:56.382Z,53.65
2024-01-20T04:22:56.459Z,53.77
2024-01-20T04:23:56.532Z,53.78
2024-01-20T04:24:56.537Z,52.71
2024-01-20T04:25:56.613Z,53.29
2024-01-20T04:26:56.722Z,51.86
2024-01-20T04:27:56.699Z,53.61
2024-01-20T04:28:56.786Z,54.70
2024-01-20T04:29:56.866Z,55.27
2024-01-20T04:30:56.843Z,55.96
2024-01-20T04:31:56.887Z,52.00
2024-01-20T04:32:57.089Z,55.42
2024-01-20T04:33:57.023Z,52.19
2024-01-20T04:34:57.031Z,52.75
2024-01-20T04:35:57.101Z,52.04
2024-01-20T04:36:57.129Z,53.31
2024-01-20T04:37:57.183Z,51.64
2024-01-20T04:38:57.304Z,54.46
2024-01-20T04:39:57.271Z,54.77
2024-01-20T04:40:57.321Z,53.87
2024-01-20T04:42:04.535Z,50.00
2024-01-20T04:43:05.499Z,50.00
2024-01-20T04:44:05.498Z,50.00
2024-01-20T04:45:05.529Z,50.00
2024-01-20T04:46:05.498Z,50.00
2024-01-20T04:47:05.500Z,51.68
2024-01-20T04:48:05.645Z,52.63
2024-01-20T04:49:05.579Z,51.80
2024-01-20T04:50:05.533Z,51.30
2024-01-20T04:51:05.549Z,53.67
2024-01-20T04:52:05.524Z,51.96
2024-01-20T04:53:05.519Z,52.00
2024-01-20T04:54:05.541Z,51.25
2024-01-20T04:55:05.521Z,51.64
2024-01-20T04:56:05.512Z,50.00
2024-01-20T04:57:05.515Z,51.77
2024-01-20T04:58:05.570Z,52.57
2024-01-20T04:59:05.529Z,51.19
2024-01-20T05:00:05.540Z,51.15
2024-01-20T05:01:05.540Z,53.63
2024-01-20T05:02:05.538Z,52.04
2024-01-20T05:03:05.611Z,53.08
2024-01-20T05:04:05.663Z,53.10
2024-01-20T05:05:05.600Z,54.89
2024-01-20T05:06:05.623Z,53.20
2024-01-20T05:07:05.654Z,53.80
2024-01-20T05:08:05.527Z,55.60
2024-01-20T05:09:05.568Z,53.52
2024-01-20T05:10:05.530Z,50.84
2024-01-20T05:11:05.542Z,53.81
2024-01-20T05:12:05.575Z,54.50
2024-01-20T05:13:05.766Z,52.13
2024-01-20T05:14:05.569Z,51.86
2024-01-20T05:15:05.600Z,53.01
2024-01-20T05:16:05.575Z,54.43
2024-01-20T05:17:05.561Z,51.96
2024-01-20T05:18:05.680Z,52.78
2024-01-20T05:19:05.776Z,53.71
2024-01-20T05:20:05.649Z,52.34
2024-01-20T05:21:05.593Z,53.27
2024-01-20T05:22:05.558Z,52.18
2024-01-20T05:23:05.564Z,52.23
2024-01-20T05:24:05.602Z,53.08
2024-01-20T05:25:05.560Z,53.16
2024-01-20T05:26:05.555Z,51.33
2024-01-20T05:27:05.613Z,52.80
2024-01-20T05:28:05.560Z,53.00
2024-01-20T05:29:05.570Z,53.22
2024-01-20T05:30:05.756Z,53.66
2024-01-20T05:31:05.577Z,51.45
2024-01-20T05:32:05.578Z,53.10
2024-01-20T05:33:05.689Z,54.54
2024-01-20T05:34:05.938Z,51.56
2024-01-20T05:35:05.575Z,53.96
2024-01-20T05:36:05.592Z,51.17
2024-01-20T05:37:05.583Z,52.25
2024-01-20T05:38:05.577Z,50.00
2024-01-20T05:39:05.640Z,52.39
2024-01-20T05:40:05.603Z,54.06
2024-01-20T05:41:05.583Z,53.91
2024-01-20T05:42:05.614Z,54.59
2024-01-20T05:43:05.661Z,51.89
2024-01-20T05:44:05.579Z,54.05
2024-01-20T05:45:05.707Z,55.85
2024-01-20T05:46:05.619Z,54.81
2024-01-20T05:47:05.601Z,53.02
2024-01-20T05:48:05.639Z,54.80
2024-01-20T05:49:05.799Z,51.79
2024-01-20T05:50:05.613Z,53.42
2024-01-20T05:51:05.634Z,54.55
2024-01-20T05:52:05.609Z,54.75
2024-01-20T05:53:05.606Z,53.55
2024-01-20T05:54:05.621Z,51.56
2024-01-20T05:55:05.609Z,55.94
2024-01-20T05:56:05.602Z,52.89
2024-01-20T05:57:05.654Z,53.16
2024-01-20T05:58:05.623Z,54.63
2024-01-20T05:59:05.616Z,54.01
2024-01-20T06:00:05.682Z,52.46
2024-01-20T06:01:05.642Z,54.01
2024-01-20T06:02:05.669Z,53.02
2024-01-20T06:03:05.664Z,54.80
2024-01-20T06:04:05.663Z,53.64
2024-01-20T06:05:05.649Z,55.08
2024-01-20T06:06:05.691Z,51.56
2024-01-20T06:07:05.627Z,53.48
2024-01-20T06:08:05.624Z,53.64
2024-01-20T06:09:05.652Z,54.25
2024-01-20T06:10:05.654Z,53.70
2024-01-20T06:11:05.632Z,53.10
2024-01-20T06:12:05.641Z,54.97
2024-01-20T06:13:05.639Z,59.63
2024-01-20T06:14:05.659Z,62.38
2024-01-20T06:15:05.694Z,64.84
2024-01-20T06:16:05.639Z,64.81
2024-01-20T06:17:05.642Z,59.64
2024-01-20T06:18:05.807Z,53.93
2024-01-20T06:19:05.691Z,50.83
2024-01-20T06:20:05.663Z,50.00
2024-01-20T06:21:05.693Z,51.56
2024-01-20T06:22:05.673Z,52.25
2024-01-20T06:23:05.657Z,53.12
2024-01-20T06:24:05.698Z,50.36
2024-01-20T06:25:05.665Z,50.73
2024-01-20T06:26:05.679Z,51.86
2024-01-20T06:27:05.827Z,55.59
2024-01-20T06:28:05.753Z,54.57
2024-01-20T06:29:06.648Z,51.75
2024-01-20T06:30:05.868Z,52.62
2024-01-20T06:31:05.826Z,51.61
2024-01-20T06:32:05.855Z,50.86
2024-01-20T06:33:05.993Z,51.56
2024-01-20T06:34:06.005Z,51.61
2024-01-20T06:35:05.931Z,53.09
2024-01-20T06:36:05.983Z,51.36
2024-01-20T06:37:06.010Z,51.60
2024-01-20T06:38:06.024Z,54.21
2024-01-20T06:39:06.151Z,50.46
2024-01-20T06:40:06.057Z,53.70
2024-01-20T06:41:06.091Z,51.48
2024-01-20T06:42:06.149Z,52.38
2024-01-20T06:43:06.168Z,54.04
2024-01-20T06:44:06.189Z,52.44
2024-01-20T06:45:06.238Z,53.47
2024-01-20T06:46:06.244Z,52.09
2024-01-20T06:47:06.260Z,54.48
2024-01-20T06:48:06.611Z,51.56
2024-01-20T06:49:06.414Z,53.14
2024-01-20T06:50:06.379Z,52.22
2024-01-20T06:51:06.397Z,51.38
2024-01-20T06:52:06.410Z,52.18
2024-01-20T06:53:06.423Z,52.72
2024-01-20T06:54:06.449Z,52.26
2024-01-20T06:55:06.440Z,53.86
2024-01-20T06:56:06.449Z,52.81
2024-01-20T06:57:06.485Z,52.84
2024-01-20T06:58:06.479Z,52.90
2024-01-20T06:59:06.498Z,53.24
2024-01-20T07:00:06.522Z,51.12
2024-01-20T07:01:06.557Z,54.28
2024-01-20T07:02:06.535Z,55.38
2024-01-20T07:03:06.626Z,53.57
2024-01-20T07:04:06.712Z,52.91
2024-01-20T07:05:06.711Z,56.33
2024-01-20T07:06:06.733Z,53.95
2024-01-20T07:07:06.621Z,55.15
2024-01-20T07:08:06.614Z,53.46
2024-01-20T07:09:06.730Z,54.41
2024-01-20T07:10:06.635Z,54.53
2024-01-20T07:11:06.655Z,53.18
2024-01-20T07:12:06.668Z,54.24
2024-01-20T07:13:06.678Z,55.97
2024-01-20T07:14:06.741Z,54.29
2024-01-20T07:15:07.067Z,56.03
2024-01-20T07:16:06.708Z,54.88
2024-01-20T07:17:06.740Z,54.62
2024-01-20T07:18:06.833Z,52.92
2024-01-20T07:19:06.781Z,54.72
2024-01-20T07:20:06.779Z,54.28
2024-01-20T07:21:06.818Z,55.50
2024-01-20T07:22:06.886Z,57.00
2024-01-20T07:23:06.844Z,55.13
2024-01-20T07:24:06.922Z,55.79
2024-01-20T07:25:06.890Z,54.34
2024-01-20T07:26:06.923Z,56.44
2024-01-20T07:27:06.965Z,56.96
2024-01-20T07:28:07.058Z,54.76
2024-01-20T07:29:07.006Z,56.36
2024-01-20T07:30:07.074Z,54.13
2024-01-20T07:31:07.058Z,55.57
2024-01-20T07:32:07.100Z,57.10
2024-01-20T07:33:07.172Z,56.21
2024-01-20T07:34:07.209Z,53.48
2024-01-20T07:35:07.167Z,54.17
2024-01-20T07:36:07.224Z,56.17
2024-01-20T07:37:07.234Z,55.56
2024-01-20T07:38:07.272Z,55.12
2024-01-20T07:39:07.287Z,54.65
2024-01-20T07:40:07.294Z,55.22
2024-01-20T07:41:07.322Z,56.05
2024-01-20T07:42:07.379Z,56.08
2024-01-20T07:43:07.373Z,55.85
2024-01-20T07:44:07.405Z,56.45
2024-01-20T07:45:07.441Z,55.54
2024-01-20T07:46:07.446Z,55.73
2024-01-20T07:47:07.476Z,52.42
2024-01-20T07:48:07.622Z,53.40
2024-01-20T07:49:07.622Z,55.24
2024-01-20T07:50:07.654Z,54.24
2024-01-20T07:51:07.622Z,56.13
2024-01-20T07:52:07.608Z,53.73
2024-01-20T07:53:07.632Z,58.33
2024-01-20T07:54:07.731Z,56.30
2024-01-20T07:55:07.674Z,56.24
2024-01-20T07:56:07.693Z,55.31
2024-01-20T07:57:07.747Z,56.28
2024-01-20T07:58:07.764Z,56.71
2024-01-20T07:59:07.784Z,57.68
2024-01-20T08:00:07.851Z,56.15
2024-01-20T08:01:07.897Z,57.35
2024-01-20T08:02:07.866Z,55.89
2024-01-20T08:03:07.951Z,54.17
2024-01-20T08:04:07.969Z,54.97
2024-01-20T08:05:07.928Z,54.03
2024-01-20T08:06:08.027Z,55.46
2024-01-20T08:07:08.067Z,54.75
2024-01-20T08:08:07.990Z,52.25
2024-01-20T08:09:08.116Z,55.00
2024-01-20T08:10:08.060Z,53.94
2024-01-20T08:11:08.076Z,55.50
2024-01-20T08:12:08.125Z,55.02
2024-01-20T08:13:08.135Z,56.65
2024-01-20T08:14:08.134Z,55.37
2024-01-20T08:15:08.172Z,53.88
2024-01-20T08:16:08.178Z,51.94
2024-01-20T08:17:08.199Z,56.42
2024-01-20T08:18:08.327Z,57.65
2024-01-20T08:19:08.362Z,54.82
2024-01-20T08:20:08.258Z,56.04
2024-01-20T08:21:08.392Z,56.61
2024-01-20T08:22:08.302Z,53.94
2024-01-20T08:23:08.317Z,53.14
2024-01-20T08:24:08.366Z,56.12
2024-01-20T08:25:08.451Z,55.86
2024-01-20T08:26:08.426Z,57.35
2024-01-20T08:27:08.466Z,55.23
2024-01-20T08:28:08.443Z,56.35
2024-01-20T08:29:08.477Z,55.85
2024-01-20T08:30:08.678Z,53.97
2024-01-20T08:31:08.726Z,56.16
2024-01-20T08:32:08.569Z,57.33
2024-01-20T08:33:09.406Z,57.60
2024-01-20T08:34:08.839Z,56.86
2024-01-20T08:35:08.642Z,54.50
2024-01-20T08:36:08.735Z,55.48
2024-01-20T08:37:08.706Z,57.98
2024-01-20T08:38:08.716Z,56.70
2024-01-20T08:39:08.748Z,58.04
2024-01-20T08:40:08.761Z,56.93
2024-01-20T08:41:08.800Z,59.64
2024-01-20T08:42:08.851Z,57.91
2024-01-20T08:43:08.805Z,58.60
2024-01-20T08:44:08.833Z,58.01
2024-01-20T08:45:08.868Z,58.61
2024-01-20T08:46:10.042Z,58.61
2024-01-20T08:47:08.897Z,59.45
2024-01-20T08:48:08.943Z,59.64
2024-01-20T08:49:09.820Z,59.83
2024-01-20T08:50:08.997Z,59.05
2024-01-20T08:51:09.061Z,59.88
2024-01-20T08:52:09.029Z,59.91
2024-01-20T08:53:09.075Z,59.52
2024-01-20T08:54:09.120Z,59.11
2024-01-20T08:55:09.126Z,57.79
2024-01-20T08:56:09.138Z,59.54
2024-01-20T08:57:09.176Z,58.61
2024-01-20T08:58:09.208Z,58.72
2024-01-20T08:59:09.222Z,58.62
2024-01-20T09:00:09.305Z,60.12
2024-01-20T09:01:09.280Z,62.58
2024-01-20T09:02:09.272Z,62.10
2024-01-20T09:03:09.359Z,59.53
2024-01-20T09:04:09.445Z,58.44
2024-01-20T09:05:09.333Z,63.29
2024-01-20T09:06:09.393Z,61.18
2024-01-20T09:07:09.380Z,60.32
2024-01-20T09:08:09.343Z,62.20
2024-01-20T09:09:09.380Z,61.32
2024-01-20T09:10:09.362Z,61.90
2024-01-20T09:11:09.388Z,64.88
2024-01-20T09:12:09.400Z,62.21
2024-01-20T09:13:09.391Z,64.01
2024-01-20T09:14:09.442Z,66.29
2024-01-20T09:15:09.487Z,65.59
2024-01-20T09:16:09.516Z,64.03
2024-01-20T09:17:09.434Z,62.47
2024-01-20T09:18:09.693Z,63.22
2024-01-20T09:19:09.637Z,63.21
2024-01-20T09:20:09.560Z,63.83
2024-01-20T09:21:09.508Z,62.29
2024-01-20T09:22:09.495Z,62.16
2024-01-20T09:23:09.532Z,65.01
2024-01-20T09:24:09.570Z,63.80
2024-01-20T09:25:09.721Z,61.25
2024-01-20T09:26:09.557Z,61.13
2024-01-20T09:27:09.586Z,62.97
2024-01-20T09:28:09.558Z,64.09
2024-01-20T09:29:09.595Z,64.04
2024-01-20T09:30:09.645Z,62.82
2024-01-20T09:31:09.577Z,62.01
2024-01-20T09:32:09.617Z,64.94
2024-01-20T09:33:09.732Z,63.82
2024-01-20T09:34:09.686Z,62.08
2024-01-20T09:35:09.663Z,62.50
2024-01-20T09:36:09.669Z,60.12
2024-01-20T09:37:12.014Z,62.93
2024-01-20T09:38:09.665Z,65.65
2024-01-20T09:39:09.675Z,62.73
2024-01-20T09:40:09.658Z,61.49
2024-01-20T09:41:09.671Z,62.41
2024-01-20T09:42:09.703Z,62.50
2024-01-20T09:43:09.676Z,63.49
2024-01-20T09:44:09.672Z,61.42
2024-01-20T09:45:09.709Z,61.44
2024-01-20T09:46:09.703Z,62.04
2024-01-20T09:47:09.690Z,63.21
2024-01-20T09:48:09.844Z,61.55
2024-01-20T09:49:09.723Z,60.07
2024-01-20T09:50:09.675Z,60.45
2024-01-20T09:51:09.699Z,59.91
2024-01-20T09:52:09.689Z,60.24
2024-01-20T09:53:09.678Z,59.39
2024-01-20T09:54:09.714Z,57.73
2024-01-20T09:55:09.684Z,60.61
2024-01-20T09:56:09.690Z,61.03
2024-01-20T09:57:09.703Z,58.67
2024-01-20T09:58:09.700Z,56.74
2024-01-20T09:59:09.686Z,54.76
2024-01-20T10:00:09.793Z,55.75
2024-01-20T10:01:09.745Z,56.37
2024-01-20T10:02:09.714Z,55.03
2024-01-20T10:03:10.706Z,56.07
2024-01-20T10:04:09.732Z,55.17
2024-01-20T10:05:09.752Z,54.58
2024-01-20T10:06:09.707Z,55.86
2024-01-20T10:07:09.698Z,55.25
2024-01-20T10:08:09.697Z,51.78
2024-01-20T10:09:09.721Z,50.00
2024-01-20T10:10:09.694Z,50.10
2024-01-20T10:11:09.712Z,55.50
2024-01-20T10:12:09.810Z,53.22
2024-01-20T10:13:09.720Z,51.83
2024-01-20T10:14:09.711Z,50.00
2024-01-20T10:15:09.731Z,53.29
2024-01-20T10:16:09.709Z,52.62
2024-01-20T10:17:09.701Z,53.28
2024-01-20T10:18:10.177Z,51.79
2024-01-20T10:19:09.712Z,51.12
2024-01-20T10:20:09.808Z,50.33
2024-01-20T10:21:09.765Z,51.85
2024-01-20T10:22:09.780Z,51.05
2024-01-20T10:23:09.813Z,53.74
2024-01-20T10:24:09.826Z,53.14
2024-01-20T10:25:09.818Z,53.23
2024-01-20T10:26:09.835Z,54.05
2024-01-20T10:27:09.914Z,52.96
2024-01-20T10:28:09.860Z,52.03
2024-01-20T10:29:09.885Z,53.02
2024-01-20T10:30:09.914Z,52.85
2024-01-20T10:31:10.165Z,51.72
2024-01-20T10:32:09.910Z,54.24
2024-01-20T10:33:11.190Z,54.54
2024-01-20T10:34:10.208Z,54.43
2024-01-20T10:35:10.125Z,53.96
2024-01-20T10:36:10.094Z,56.08
2024-01-20T10:37:10.077Z,50.69
2024-01-20T10:38:10.141Z,51.45
2024-01-20T10:39:10.121Z,51.76
2024-01-20T10:40:10.116Z,53.73
2024-01-20T10:41:10.142Z,50.42
2024-01-20T10:42:10.199Z,51.57
2024-01-20T10:43:10.155Z,52.34
2024-01-20T10:44:10.171Z,52.43
2024-01-20T10:45:10.193Z,54.18
2024-01-20T10:46:10.173Z,52.92
2024-01-20T10:47:10.186Z,52.65
2024-01-20T10:48:12.124Z,51.23
2024-01-20T10:49:10.328Z,50.81
2024-01-20T10:50:10.241Z,53.94
2024-01-20T10:51:10.372Z,51.00
2024-01-20T10:52:10.267Z,51.83
2024-01-20T10:53:10.220Z,53.26
2024-01-20T10:54:10.441Z,53.57
2024-01-20T10:55:10.223Z,51.85
2024-01-20T10:56:10.215Z,52.99
2024-01-20T10:57:10.246Z,52.13
2024-01-20T10:58:10.229Z,51.92
2024-01-20T10:59:10.226Z,53.37
2024-01-20T11:00:10.248Z,52.71
2024-01-20T11:01:10.253Z,50.40
2024-01-20T11:02:10.231Z,51.92
2024-01-20T11:03:10.316Z,52.01
2024-01-20T11:04:10.372Z,51.24
2024-01-20T11:05:10.234Z,52.16
2024-01-20T11:06:10.287Z,53.19
2024-01-20T11:07:10.230Z,53.12
2024-01-20T11:08:10.232Z,50.67
2024-01-20T11:09:10.243Z,50.25
2024-01-20T11:10:10.242Z,52.01
2024-01-20T11:11:10.245Z,52.44
2024-01-20T11:12:10.326Z,53.51
2024-01-20T11:13:10.258Z,51.84
2024-01-20T11:14:10.250Z,53.14
2024-01-20T11:15:10.286Z,51.67
2024-01-20T11:16:10.250Z,51.20
2024-01-20T11:17:10.257Z,51.48
2024-01-20T11:18:10.294Z,51.18
2024-01-20T11:19:10.329Z,52.30
2024-01-20T11:20:10.263Z,50.62
2024-01-20T11:21:10.314Z,53.23
2024-01-20T11:22:10.289Z,51.59
2024-01-20T11:23:10.264Z,50.00
2024-01-20T11:24:12.064Z,51.82
2024-01-20T11:25:10.278Z,51.92
2024-01-20T11:26:10.279Z,52.37
2024-01-20T11:27:10.331Z,51.94
2024-01-20T11:28:10.272Z,51.88
2024-01-20T11:29:10.273Z,51.34
2024-01-20T11:30:10.311Z,55.07
2024-01-20T11:31:10.272Z,51.67
2024-01-20T11:32:10.278Z,52.07
2024-01-20T11:33:10.384Z,52.38
2024-01-20T11:34:10.385Z,52.77
2024-01-20T11:35:10.290Z,51.47
2024-01-20T11:36:10.292Z,51.87
2024-01-20T11:37:10.284Z,51.16
2024-01-20T11:38:10.314Z,53.55
2024-01-20T11:39:10.310Z,51.60
2024-01-20T11:40:10.295Z,51.55
2024-01-20T11:41:10.294Z,54.52
2024-01-20T11:42:11.714Z,54.82
2024-01-20T11:43:10.295Z,54.84
2024-01-20T11:44:10.292Z,52.53
2024-01-20T11:45:10.350Z,53.94
2024-01-20T11:46:10.289Z,54.41
2024-01-20T11:47:10.284Z,52.76
2024-01-20T11:48:13.803Z,51.54
2024-01-20T11:49:10.415Z,51.62
2024-01-20T11:50:10.328Z,51.86
2024-01-20T11:51:10.312Z,53.39
2024-01-20T11:52:10.289Z,52.73
2024-01-20T11:53:10.297Z,51.33
2024-01-20T11:54:12.199Z,51.69
2024-01-20T11:55:10.297Z,51.72
2024-01-20T11:56:10.325Z,51.72
2024-01-20T11:57:10.329Z,52.41
2024-01-20T11:58:10.316Z,52.94
2024-01-20T11:59:10.310Z,52.11
2024-01-20T12:00:12.211Z,51.77
2024-01-20T12:01:10.503Z,51.80
2024-01-20T12:02:10.311Z,52.00
2024-01-20T12:03:10.338Z,52.49
2024-01-20T12:04:10.319Z,53.14
2024-01-20T12:05:15.983Z,51.01
2024-01-20T12:06:13.027Z,51.88
2024-01-20T12:07:10.403Z,51.99
2024-01-20T12:08:10.317Z,52.82
2024-01-20T12:09:10.343Z,53.50
2024-01-20T12:10:10.341Z,52.70
2024-01-20T12:11:10.317Z,54.90
2024-01-20T12:12:10.335Z,58.14
2024-01-20T12:13:10.323Z,58.02
2024-01-20T12:14:10.321Z,55.71
2024-01-20T12:15:10.381Z,52.79
2024-01-20T12:16:10.321Z,52.84
2024-01-20T12:17:10.323Z,51.33
2024-01-20T12:18:10.439Z,52.42
2024-01-20T12:19:10.440Z,53.98
2024-01-20T12:20:10.331Z,53.21
2024-01-20T12:21:10.408Z,50.81
2024-01-20T12:22:10.324Z,52.79
2024-01-20T12:23:10.333Z,52.98
2024-01-20T12:24:10.364Z,53.82
2024-01-20T12:25:10.335Z,53.24
2024-01-20T12:26:10.362Z,50.00
2024-01-20T12:27:10.351Z,53.73
2024-01-20T12:28:10.327Z,54.69
2024-01-20T12:29:10.333Z,58.92
2024-01-20T12:30:10.339Z,55.21
2024-01-20T12:31:12.059Z,56.50
2024-01-20T12:32:10.331Z,56.55
2024-01-20T12:33:10.633Z,56.70
2024-01-20T12:34:10.401Z,57.92
2024-01-20T12:35:10.353Z,60.29
2024-01-20T12:36:10.372Z,58.62
2024-01-20T12:37:10.346Z,59.08
2024-01-20T12:38:10.347Z,56.38
2024-01-20T12:39:10.417Z,60.28
2024-01-20T12:40:10.347Z,58.89
2024-01-20T12:41:10.348Z,59.14
2024-01-20T12:42:10.409Z,57.14
2024-01-20T12:43:10.349Z,57.05
2024-01-20T12:44:10.363Z,58.58
2024-01-20T12:45:10.397Z,55.45
2024-01-20T12:46:10.357Z,60.88
2024-01-20T12:47:10.356Z,59.22
2024-01-20T12:48:10.534Z,57.54
2024-01-20T12:49:10.412Z,53.86
2024-01-20T12:50:10.415Z,53.94
2024-01-20T12:51:10.406Z,57.11
2024-01-20T12:52:10.368Z,58.67
2024-01-20T12:53:10.373Z,60.82
2024-01-20T12:54:10.416Z,61.62
2024-01-20T12:55:10.369Z,60.42
2024-01-20T12:56:10.371Z,61.25
2024-01-20T12:57:10.401Z,62.20
2024-01-20T12:58:10.406Z,63.04
2024-01-20T12:59:10.370Z,63.12
2024-01-20T13:00:10.409Z,62.66
2024-01-20T13:01:10.418Z,59.10
2024-01-20T13:02:10.380Z,61.62
2024-01-20T13:03:10.407Z,62.95
2024-01-20T13:04:10.409Z,63.57
2024-01-20T13:05:10.618Z,64.42
2024-01-20T13:06:10.571Z,64.40
2024-01-20T13:07:13.992Z,65.92
2024-01-20T13:08:10.566Z,65.94
2024-01-20T13:09:10.603Z,65.10
2024-01-20T13:10:10.611Z,65.41
2024-01-20T13:11:10.594Z,64.08
2024-01-20T13:12:10.610Z,64.71
2024-01-20T13:13:10.613Z,64.28
2024-01-20T13:14:10.760Z,62.04
2024-01-20T13:15:10.737Z,65.21
2024-01-20T13:16:10.722Z,64.21
2024-01-20T13:17:10.656Z,64.44
2024-01-20T13:18:10.722Z,62.62
2024-01-20T13:19:10.739Z,62.13
2024-01-20T13:20:10.769Z,63.08
2024-01-20T13:21:10.695Z,62.86
2024-01-20T13:22:10.697Z,62.73
2024-01-20T13:23:10.716Z,63.31
2024-01-20T13:24:10.726Z,65.32
2024-01-20T13:25:10.727Z,65.19
2024-01-20T13:26:10.737Z,64.42
2024-01-20T13:27:10.779Z,64.41
2024-01-20T13:28:10.800Z,66.10
2024-01-20T13:29:10.806Z,67.65
2024-01-20T13:30:10.890Z,67.01
2024-01-20T13:31:10.828Z,66.51
2024-01-20T13:32:10.863Z,66.93
2024-01-20T13:33:10.948Z,62.03
2024-01-20T13:34:11.039Z,66.44
2024-01-20T13:35:10.872Z,67.27
2024-01-20T13:36:10.905Z,68.03
2024-01-20T13:37:10.888Z,66.38
2024-01-20T13:38:10.907Z,66.53
2024-01-20T13:39:11.035Z,67.88
2024-01-20T13:40:11.078Z,67.52
2024-01-20T13:41:10.996Z,66.66
2024-01-20T13:42:11.095Z,67.68